Rincon, New Mexico
Current Conditions -  °F | °C
As of 4:15 PM on Friday 19 Dec 2014 (Local Time) from KLRU Reporting Station
Clear Clear  
Wind Chill: 50°   Ceiling: Unl
Heat Index: 50°   Visibility: 10mi
Dew Point: 26°   Wind: 5mph
Humidity: 38%   Direction: 40°NE
Pressure: 30.16"   Gusts: NA
Location:  32.67°N, 107.06°W
Report Text: KLRU 192315Z AUTO 04004KT 10SM CLR 10/M04 A3016 RMK AO2 T01011036
Loading
Personal Weather Stations






























Interactive Weather Map New forecast layout! Learn more

10-Day Weather Forecast

Advertisements
Track Severe Weather on mobile